createdAt,value
2019-04-27T00:01:48.458Z,1.70
2019-04-27T00:04:40.035Z,2.05
2019-04-27T00:07:17.078Z,2.00
2019-04-27T00:09:51.262Z,1.98
2019-04-27T00:12:22.857Z,2.23
2019-04-27T00:14:54.519Z,1.92
2019-04-27T00:17:45.389Z,2.20
2019-04-27T00:20:25.091Z,2.30
2019-04-27T00:22:56.052Z,2.30
2019-04-27T00:25:27.004Z,2.20
2019-04-27T00:27:56.789Z,1.92
2019-04-27T00:30:26.166Z,2.67
2019-04-27T00:32:55.572Z,2.30
2019-04-27T00:35:26.637Z,2.10
2019-04-27T00:38:06.633Z,2.47
2019-04-27T00:40:37.664Z,2.40
2019-04-27T00:43:07.042Z,2.15
2019-04-27T00:45:36.347Z,2.00
2019-04-27T00:48:05.913Z,2.12
2019-04-27T00:50:35.276Z,1.60
2019-04-27T00:53:04.737Z,1.80
2019-04-27T00:55:35.847Z,1.82
2019-04-27T00:58:06.944Z,2.15
2019-04-27T01:00:47.255Z,1.62
2019-04-27T01:03:27.033Z,1.70
2019-04-27T01:05:56.401Z,1.62
2019-04-27T01:08:25.733Z,1.77
2019-04-27T01:10:55.038Z,1.37
2019-04-27T01:13:24.365Z,1.70
2019-04-27T01:15:54.137Z,1.87
2019-04-27T01:18:23.666Z,2.00
2019-04-27T01:20:52.952Z,1.85
2019-04-27T01:23:22.266Z,2.17
2019-04-27T01:25:56.427Z,1.98
2019-04-27T01:28:29.081Z,2.37
2019-04-27T01:31:09.300Z,2.00
2019-04-27T01:33:39.002Z,1.70
2019-04-27T01:36:10.778Z,1.80
2019-04-27T01:38:41.448Z,1.52
2019-04-27T01:41:10.844Z,1.37
2019-04-27T01:43:40.150Z,1.62
2019-04-27T01:46:09.484Z,1.40
2019-04-27T01:48:38.848Z,1.40
2019-04-27T01:51:09.214Z,1.42
2019-04-27T01:53:39.081Z,1.35
2019-04-27T01:56:09.466Z,1.70
2019-04-27T01:58:39.282Z,1.50
2019-04-27T02:01:30.425Z,1.70
2019-04-27T02:04:10.097Z,1.50
2019-04-27T02:06:39.556Z,1.40
2019-04-27T02:09:12.444Z,1.60
2019-04-27T02:11:41.917Z,1.60
2019-04-27T02:14:11.665Z,1.30
2019-04-27T02:16:41.239Z,1.62
2019-04-27T02:19:11.346Z,1.50
2019-04-27T02:21:40.855Z,1.62
2019-04-27T02:24:11.257Z,1.52
2019-04-27T02:26:40.688Z,1.25
2019-04-27T02:29:29.882Z,1.80
2019-04-27T02:32:12.847Z,3.10
2019-04-27T02:34:44.858Z,3.30
2019-04-27T02:37:14.238Z,2.95
2019-04-27T02:39:43.538Z,2.83
2019-04-27T02:42:13.145Z,2.42
2019-04-27T02:44:42.768Z,2.20
2019-04-27T02:47:12.081Z,2.10
2019-04-27T02:49:41.452Z,1.67
2019-04-27T02:52:19.854Z,2.22
2019-04-27T02:54:50.583Z,2.10
2019-04-27T02:57:20.222Z,2.00
2019-04-27T02:59:52.390Z,1.70
2019-04-27T03:02:26.073Z,1.50
2019-04-27T03:04:55.365Z,1.40
2019-04-27T03:07:24.709Z,1.60
2019-04-27T03:09:53.982Z,1.87
2019-04-27T03:12:24.958Z,1.70
2019-04-27T03:14:55.901Z,2.05
2019-04-27T03:17:30.983Z,1.50
2019-04-27T03:20:14.574Z,1.70
2019-04-27T03:22:45.526Z,1.07
2019-04-27T03:25:19.898Z,1.20
2019-04-27T03:27:53.951Z,1.00
2019-04-27T03:30:23.950Z,1.10
2019-04-27T03:32:56.429Z,1.50
2019-04-27T03:35:24.846Z,1.60
2019-04-27T03:37:54.299Z,1.47
2019-04-27T03:40:23.607Z,1.40
2019-04-27T03:42:54.628Z,1.70
2019-04-27T03:45:24.068Z,1.30
2019-04-27T03:47:53.394Z,1.25
2019-04-27T03:50:24.313Z,1.20
2019-04-27T03:53:00.990Z,1.00
2019-04-27T03:55:34.693Z,1.20
2019-04-27T03:58:21.412Z,1.40
2019-04-27T04:00:49.508Z,1.37
2019-04-27T04:03:20.465Z,1.57
2019-04-27T04:05:51.944Z,1.32
2019-04-27T04:08:21.097Z,1.40
2019-04-27T04:10:59.639Z,1.20
2019-04-27T04:13:30.794Z,1.30
2019-04-27T04:16:01.746Z,1.30
2019-04-27T04:18:32.709Z,1.17
2019-04-27T04:21:02.016Z,1.30
2019-04-27T04:23:31.338Z,1.30
2019-04-27T04:26:00.642Z,2.37
2019-04-27T04:28:29.976Z,2.20
2019-04-27T04:31:00.541Z,2.37
2019-04-27T04:33:31.159Z,1.50
2019-04-27T04:36:00.608Z,1.62
2019-04-27T04:38:30.599Z,2.10
2019-04-27T04:41:01.701Z,1.82
2019-04-27T04:43:39.982Z,1.80
2019-04-27T04:46:29.768Z,3.05
2019-04-27T04:49:00.235Z,3.52
2019-04-27T04:51:30.794Z,3.12
2019-04-27T04:54:00.157Z,4.92
2019-04-27T04:56:29.471Z,4.92
2019-04-27T04:59:00.019Z,4.28
2019-04-27T05:01:29.849Z,1.72
2019-04-27T05:03:59.541Z,1.20
2019-04-27T05:06:29.316Z,1.07
2019-04-27T05:08:59.504Z,1.32
2019-04-27T05:11:29.769Z,1.15
2019-04-27T05:14:01.474Z,1.22
2019-04-27T05:16:32.711Z,1.37
2019-04-27T05:19:01.358Z,1.65
2019-04-27T05:21:32.306Z,1.50
2019-04-27T05:24:01.833Z,1.62
2019-04-27T05:26:31.156Z,1.40
2019-04-27T05:29:00.537Z,1.62
2019-04-27T05:31:29.898Z,1.45
2019-04-27T05:34:00.285Z,2.27
2019-04-27T05:36:29.791Z,2.02
2019-04-27T05:38:59.784Z,2.00
2019-04-27T05:41:37.335Z,1.15
2019-04-27T05:44:07.556Z,1.30
2019-04-27T05:46:45.021Z,1.70
2019-04-27T05:49:15.975Z,1.50
2019-04-27T05:51:47.909Z,1.50
2019-04-27T05:54:19.127Z,2.35
2019-04-27T05:56:49.255Z,2.20
2019-04-27T05:59:19.854Z,2.27
2019-04-27T06:01:50.463Z,1.50
2019-04-27T06:04:19.772Z,0.80
2019-04-27T06:06:49.908Z,0.60
2019-04-27T06:09:19.583Z,0.80
2019-04-27T06:11:50.688Z,0.60
2019-04-27T06:14:20.189Z,0.57
2019-04-27T06:16:51.330Z,0.50
2019-04-27T06:19:20.527Z,0.70
2019-04-27T06:21:50.111Z,0.70
2019-04-27T06:24:19.562Z,0.50
2019-04-27T06:26:49.808Z,0.50
2019-04-27T06:29:19.798Z,0.62
2019-04-27T06:31:49.752Z,0.55
2019-04-27T06:34:19.489Z,0.57
2019-04-27T06:36:48.947Z,0.60
2019-04-27T06:39:18.927Z,0.50
2019-04-27T06:41:49.309Z,0.90
2019-04-27T06:44:19.651Z,0.70
2019-04-27T06:46:49.247Z,0.70
2019-04-27T06:49:19.472Z,0.60
2019-04-27T06:51:49.818Z,0.57
2019-04-27T06:54:21.368Z,0.53
2019-04-27T06:56:50.920Z,0.82
2019-04-27T06:59:20.253Z,0.60
2019-04-27T07:01:49.566Z,0.60
2019-04-27T07:04:19.591Z,0.65
2019-04-27T07:06:53.977Z,0.60
2019-04-27T07:09:20.124Z,0.80
2019-04-27T07:11:49.720Z,0.90
2019-04-27T07:14:20.201Z,0.60
2019-04-27T07:16:50.776Z,0.60
2019-04-27T07:19:20.370Z,0.65
2019-04-27T07:21:49.889Z,1.25
2019-04-27T07:24:19.730Z,0.80
2019-04-27T07:26:49.177Z,0.80
2019-04-27T07:29:30.450Z,0.72
2019-04-27T07:31:59.895Z,1.12
2019-04-27T07:34:30.528Z,0.82
2019-04-27T07:37:00.062Z,0.90
2019-04-27T07:39:29.526Z,1.10
2019-04-27T07:41:58.988Z,1.20
2019-04-27T07:44:35.741Z,0.90
2019-04-27T07:47:16.074Z,0.90
2019-04-27T07:49:46.313Z,0.70
2019-04-27T07:52:15.626Z,0.90
2019-04-27T07:54:45.053Z,1.10
2019-04-27T07:57:14.452Z,0.90
2019-04-27T07:59:43.855Z,1.10
2019-04-27T08:02:13.164Z,0.98
2019-04-27T08:04:42.489Z,0.88
2019-04-27T08:07:11.970Z,0.90
2019-04-27T08:09:41.283Z,1.02
2019-04-27T08:12:10.979Z,1.00
2019-04-27T08:14:41.561Z,0.80
2019-04-27T08:17:10.898Z,1.02
2019-04-27T08:19:40.288Z,1.10
2019-04-27T08:22:09.835Z,1.07
2019-04-27T08:24:39.666Z,1.55
2019-04-27T08:27:10.912Z,1.30
2019-04-27T08:29:58.781Z,1.02
2019-04-27T08:32:36.715Z,1.20
2019-04-27T08:35:06.870Z,1.37
2019-04-27T08:37:36.208Z,1.12
2019-04-27T08:40:09.199Z,1.62
2019-04-27T08:42:39.136Z,0.82
2019-04-27T08:45:09.884Z,1.10
2019-04-27T08:47:41.653Z,1.20
2019-04-27T08:50:10.535Z,0.93
2019-04-27T08:52:41.944Z,1.07
2019-04-27T08:55:11.410Z,1.20
2019-04-27T08:57:40.736Z,1.00
2019-04-27T09:00:10.581Z,1.25
2019-04-27T09:02:46.816Z,1.10
2019-04-27T09:05:10.968Z,1.32
2019-04-27T09:07:47.403Z,0.88
2019-04-27T09:10:28.887Z,1.27
2019-04-27T09:13:00.004Z,1.00
2019-04-27T09:15:39.138Z,1.05
2019-04-27T09:18:09.124Z,0.82
2019-04-27T09:20:42.845Z,0.80
2019-04-27T09:23:13.267Z,1.10
2019-04-27T09:25:42.590Z,0.90
2019-04-27T09:28:11.920Z,1.02
2019-04-27T09:30:41.222Z,0.80
2019-04-27T09:33:10.562Z,0.90
2019-04-27T09:35:39.876Z,0.90
2019-04-27T09:38:09.286Z,0.98
2019-04-27T09:40:38.637Z,1.02
2019-04-27T09:43:08.097Z,0.70
2019-04-27T09:45:37.412Z,0.70
2019-04-27T09:48:08.034Z,0.80
2019-04-27T09:50:37.348Z,0.80
2019-04-27T09:53:06.824Z,0.75
2019-04-27T09:55:36.858Z,0.70
2019-04-27T09:58:06.517Z,0.80
2019-04-27T10:00:36.538Z,1.00
2019-04-27T10:03:06.756Z,0.80
2019-04-27T10:05:37.318Z,0.82
2019-04-27T10:08:06.814Z,0.80
2019-04-27T10:10:37.159Z,0.60
2019-04-27T10:13:07.792Z,0.70
2019-04-27T10:15:38.084Z,0.68
2019-04-27T10:18:07.419Z,0.70
2019-04-27T10:20:40.540Z,0.60
2019-04-27T10:23:07.754Z,0.40
2019-04-27T10:25:37.608Z,0.50
2019-04-27T10:28:08.097Z,0.57
2019-04-27T10:30:37.408Z,0.60
2019-04-27T10:33:08.233Z,0.47
2019-04-27T10:35:37.777Z,0.50
2019-04-27T10:38:07.122Z,0.53
2019-04-27T10:40:36.432Z,0.60
2019-04-27T10:43:06.311Z,0.80
2019-04-27T10:45:37.924Z,0.60
2019-04-27T10:48:07.164Z,0.50
2019-04-27T10:50:36.759Z,1.30
2019-04-27T10:53:06.966Z,0.70
2019-04-27T10:55:37.655Z,0.80
2019-04-27T10:58:07.096Z,0.80
2019-04-27T11:00:54.320Z,0.90
2019-04-27T11:03:41.668Z,0.80
2019-04-27T11:06:33.492Z,0.75
2019-04-27T11:09:06.039Z,0.70
2019-04-27T11:11:36.369Z,1.20
2019-04-27T11:14:06.871Z,0.90
2019-04-27T11:16:37.818Z,0.90
2019-04-27T11:19:07.706Z,1.02
2019-04-27T11:21:37.086Z,1.10
2019-04-27T11:24:06.529Z,1.00
2019-04-27T11:26:36.350Z,1.15
2019-04-27T11:29:05.987Z,0.93
2019-04-27T11:31:36.360Z,0.75
2019-04-27T11:34:06.712Z,0.95
2019-04-27T11:36:37.793Z,0.90
2019-04-27T11:39:12.749Z,1.00
2019-04-27T11:41:42.220Z,0.80
2019-04-27T11:44:11.547Z,0.98
2019-04-27T11:46:40.949Z,1.32
2019-04-27T11:49:10.481Z,0.88
2019-04-27T11:51:39.881Z,0.80
2019-04-27T11:54:09.261Z,0.57
2019-04-27T11:56:38.584Z,0.90
2019-04-27T11:59:07.963Z,0.93
2019-04-27T12:01:37.293Z,0.80
2019-04-27T12:04:07.756Z,0.78
2019-04-27T12:06:37.099Z,1.00
2019-04-27T12:09:07.004Z,0.80
2019-04-27T12:11:36.819Z,1.00
2019-04-27T12:14:06.365Z,0.88
2019-04-27T12:16:36.020Z,0.70
2019-04-27T12:19:06.584Z,0.88
2019-04-27T12:21:36.276Z,0.70
2019-04-27T12:24:05.824Z,0.85
2019-04-27T12:26:36.834Z,0.68
2019-04-27T12:29:07.840Z,0.57
2019-04-27T12:31:38.820Z,0.53
2019-04-27T12:34:08.218Z,0.50
2019-04-27T12:36:38.658Z,0.45
2019-04-27T12:39:12.328Z,0.50
2019-04-27T12:41:42.476Z,0.53
2019-04-27T12:44:11.893Z,0.50
2019-04-27T12:46:41.281Z,0.50
2019-04-27T12:49:11.320Z,0.57
2019-04-27T12:51:40.684Z,0.42
2019-04-27T12:54:16.140Z,0.50
2019-04-27T12:56:55.877Z,1.65
2019-04-27T12:59:44.152Z,0.95
2019-04-27T13:02:13.817Z,0.42
2019-04-27T13:04:43.128Z,0.40
2019-04-27T13:07:12.602Z,0.70
2019-04-27T13:09:41.908Z,0.80
2019-04-27T13:12:11.221Z,0.50
2019-04-27T13:14:40.573Z,0.60
2019-04-27T13:17:10.034Z,0.47
2019-04-27T13:19:39.426Z,0.40
2019-04-27T13:22:08.735Z,0.47
2019-04-27T13:24:38.053Z,0.40
2019-04-27T13:27:07.509Z,0.57
2019-04-27T13:29:36.977Z,0.90
2019-04-27T13:32:06.319Z,0.62
2019-04-27T13:34:36.363Z,0.65
2019-04-27T13:37:08.496Z,0.53
2019-04-27T13:39:38.021Z,0.68
2019-04-27T13:42:07.412Z,1.42
2019-04-27T13:44:36.941Z,0.68
2019-04-27T13:47:08.035Z,0.60
2019-04-27T13:49:56.301Z,1.10
2019-04-27T13:52:27.394Z,1.10
2019-04-27T13:54:57.457Z,1.12
2019-04-27T13:57:26.874Z,3.65
2019-04-27T13:59:57.358Z,1.57
2019-04-27T14:02:32.073Z,1.72
2019-04-27T14:04:57.711Z,2.05
2019-04-27T14:07:27.022Z,1.65
2019-04-27T14:09:56.425Z,1.60
2019-04-27T14:12:25.744Z,2.87
2019-04-27T14:14:55.094Z,3.10
2019-04-27T14:17:24.463Z,1.40
2019-04-27T14:19:53.881Z,1.40
2019-04-27T14:22:23.194Z,1.30
2019-04-27T14:24:52.539Z,1.20
2019-04-27T14:27:23.563Z,1.47
2019-04-27T14:29:52.885Z,1.22
2019-04-27T14:32:22.262Z,0.93
2019-04-27T14:34:51.600Z,1.57
2019-04-27T14:37:20.993Z,1.20
2019-04-27T14:39:50.297Z,1.35
2019-04-27T14:42:20.591Z,0.95
2019-04-27T14:44:49.970Z,1.00
2019-04-27T14:47:19.304Z,1.50
2019-04-27T14:49:49.190Z,1.40
2019-04-27T14:52:18.948Z,1.00
2019-04-27T14:54:50.904Z,1.30
2019-04-27T14:57:20.484Z,1.95
2019-04-27T14:59:50.049Z,1.40
2019-04-27T15:02:19.445Z,2.05
2019-04-27T15:04:48.769Z,2.10
2019-04-27T15:07:18.110Z,1.90
2019-04-27T15:09:49.719Z,1.50
2019-04-27T15:12:24.449Z,0.90
2019-04-27T15:14:53.218Z,1.02
2019-04-27T15:17:25.567Z,1.10
2019-04-27T15:19:54.890Z,1.07
2019-04-27T15:22:25.988Z,0.82
2019-04-27T15:25:09.359Z,1.32
2019-04-27T15:27:37.388Z,0.78
2019-04-27T15:30:05.794Z,0.80
2019-04-27T15:32:53.096Z,0.70
2019-04-27T15:35:40.588Z,0.60
2019-04-27T15:38:28.790Z,0.88
2019-04-27T15:41:05.946Z,0.70
2019-04-27T15:43:38.675Z,0.60
2019-04-27T15:46:08.370Z,0.80
2019-04-27T15:48:38.458Z,2.55
2019-04-27T15:51:14.649Z,0.95
2019-04-27T15:53:41.444Z,0.70
2019-04-27T15:56:11.433Z,0.70
2019-04-27T15:58:40.741Z,0.55
2019-04-27T16:01:11.924Z,0.48
2019-04-27T16:03:41.596Z,1.10
2019-04-27T16:06:11.966Z,1.02
2019-04-27T16:08:45.370Z,4.90
2019-04-27T16:11:16.382Z,1.60
2019-04-27T16:13:44.869Z,1.05
2019-04-27T16:16:14.166Z,1.02
2019-04-27T16:18:43.499Z,0.93
2019-04-27T16:21:12.812Z,1.00
2019-04-27T16:23:43.196Z,0.90
2019-04-27T16:26:14.944Z,1.00
2019-04-27T16:28:49.677Z,1.10
2019-04-27T16:31:14.969Z,1.00
2019-04-27T16:33:44.629Z,1.80
2019-04-27T16:36:13.989Z,1.27
2019-04-27T16:38:50.945Z,1.17
2019-04-27T16:41:20.301Z,1.10
2019-04-27T16:43:50.622Z,1.32
2019-04-27T16:46:21.430Z,1.30
2019-04-27T16:48:50.912Z,0.93
2019-04-27T16:51:20.294Z,0.78
2019-04-27T16:53:49.794Z,0.95
2019-04-27T16:56:20.820Z,2.35
2019-04-27T16:58:56.454Z,1.92
2019-04-27T17:01:23.081Z,0.98
2019-04-27T17:03:52.593Z,1.27
2019-04-27T17:06:22.137Z,1.60
2019-04-27T17:08:51.496Z,1.12
2019-04-27T17:11:21.343Z,1.35
2019-04-27T17:13:54.133Z,1.07
2019-04-27T17:16:31.182Z,1.00
2019-04-27T17:19:04.681Z,1.12
2019-04-27T17:21:33.437Z,1.10
2019-04-27T17:26:04.443Z,1.98
2019-04-27T17:28:37.605Z,1.80
2019-04-27T17:31:08.802Z,1.32
2019-04-27T17:35:28.537Z,1.67
2019-04-27T17:38:03.708Z,4.62
2019-04-27T17:40:34.383Z,6.75
2019-04-27T17:43:08.005Z,3.52
2019-04-27T17:45:38.055Z,1.72
2019-04-27T17:48:07.038Z,1.10
2019-04-27T17:50:33.298Z,1.00
2019-04-27T17:53:00.678Z,0.95
2019-04-27T17:55:27.899Z,0.95
2019-04-27T17:57:54.514Z,1.12
2019-04-27T18:00:21.791Z,1.07
2019-04-27T18:04:23.470Z,1.20
2019-04-27T18:07:08.934Z,1.37
2019-04-27T18:09:53.851Z,0.95
2019-04-27T18:12:38.659Z,1.30
2019-04-27T18:15:23.841Z,1.45
2019-04-27T18:18:13.585Z,1.50
2019-04-27T18:20:59.085Z,1.42
2019-04-27T18:23:51.877Z,1.30
2019-04-27T18:26:49.065Z,1.12
2019-04-27T18:29:30.756Z,1.35
2019-04-27T18:32:14.012Z,0.80
2019-04-27T18:35:00.293Z,1.10
2019-04-27T18:37:45.924Z,1.52
2019-04-27T18:40:33.544Z,1.40
2019-04-27T18:43:18.835Z,1.98
2019-04-27T18:46:04.362Z,1.60
2019-04-27T18:48:53.985Z,1.17
2019-04-27T18:51:48.210Z,1.40
2019-04-27T18:54:38.359Z,1.65
2019-04-27T18:57:20.418Z,1.27
2019-04-27T19:00:08.203Z,1.27
2019-04-27T19:02:55.279Z,1.57
2019-04-27T19:05:40.674Z,1.47
2019-04-27T19:08:25.893Z,0.95
2019-04-27T19:11:10.508Z,0.90
2019-04-27T19:13:55.609Z,0.95
2019-04-27T19:16:40.814Z,0.95
2019-04-27T19:19:27.963Z,0.90
2019-04-27T19:22:13.318Z,0.88
2019-04-27T19:24:59.262Z,1.07
2019-04-27T19:27:48.701Z,0.70
2019-04-27T19:30:53.539Z,1.12
2019-04-27T19:33:39.620Z,0.93
2019-04-27T19:36:24.707Z,0.90
2019-04-27T19:39:13.907Z,1.05
2019-04-27T19:42:03.595Z,1.10
2019-04-27T19:44:48.081Z,0.85
2019-04-27T19:47:33.172Z,1.05
2019-04-27T19:50:19.268Z,1.37
2019-04-27T19:53:04.521Z,1.10
2019-04-27T19:55:54.088Z,1.30
2019-04-27T19:58:44.103Z,1.27
2019-04-27T20:01:31.410Z,1.25
2019-04-27T20:04:21.211Z,1.40
2019-04-27T20:07:06.442Z,1.20
2019-04-27T20:09:59.098Z,1.20
2019-04-27T20:12:44.405Z,1.60
2019-04-27T20:15:29.239Z,1.22
2019-04-27T20:18:14.002Z,1.50
2019-04-27T20:20:58.654Z,1.10
2019-04-27T20:23:43.535Z,1.20
2019-04-27T20:26:28.298Z,1.20
2019-04-27T20:29:13.056Z,1.32
2019-04-27T20:31:58.321Z,1.60
2019-04-27T20:34:43.023Z,1.15
2019-04-27T20:37:28.065Z,1.15
2019-04-27T20:40:13.528Z,1.30
2019-04-27T20:42:58.790Z,1.10
2019-04-27T20:45:43.997Z,1.77
2019-04-27T20:48:31.177Z,1.40
2019-04-27T20:51:18.315Z,1.30
2019-04-27T20:54:03.427Z,1.85
2019-04-27T20:56:48.634Z,1.50
2019-04-27T20:59:35.052Z,2.15
2019-04-27T21:02:32.127Z,1.60
2019-04-27T21:05:28.073Z,1.75
2019-04-27T21:08:17.582Z,1.27
2019-04-27T21:11:03.223Z,1.15
2019-04-27T21:13:48.276Z,1.40
2019-04-27T21:16:32.991Z,1.37
2019-04-27T21:19:17.729Z,1.30
2019-04-27T21:22:02.609Z,1.50
2019-04-27T21:24:47.253Z,1.20
2019-04-27T21:27:32.063Z,1.50
2019-04-27T21:30:17.614Z,1.20
2019-04-27T21:33:02.321Z,1.20
2019-04-27T21:35:51.136Z,1.00
2019-04-27T21:38:36.557Z,1.72
2019-04-27T21:41:22.734Z,1.40
2019-04-27T21:44:07.857Z,0.90
2019-04-27T21:46:52.670Z,1.22
2019-04-27T21:49:37.505Z,1.85
2019-04-27T21:52:24.084Z,1.15
2019-04-27T21:55:11.516Z,2.02
2019-04-27T21:57:56.612Z,1.10
2019-04-27T22:00:43.280Z,1.35
2019-04-27T22:03:31.610Z,1.32
2019-04-27T22:06:17.413Z,0.93
2019-04-27T22:09:05.316Z,1.32
2019-04-27T22:11:52.140Z,1.25
2019-04-27T22:14:36.959Z,1.20
2019-04-27T22:17:21.661Z,1.32
2019-04-27T22:20:06.845Z,1.22
2019-04-27T22:22:56.466Z,1.50
2019-04-27T22:25:42.185Z,1.20
2019-04-27T22:28:27.106Z,1.12
2019-04-27T22:31:12.579Z,1.45
2019-04-27T22:33:57.625Z,1.52
2019-04-27T22:36:42.742Z,1.27
2019-04-27T22:39:30.930Z,1.10
2019-04-27T22:42:35.925Z,1.15
2019-04-27T22:45:22.770Z,1.40
2019-04-27T22:48:07.967Z,1.30
2019-04-27T22:50:52.829Z,1.37
2019-04-27T22:53:37.921Z,1.22
2019-04-27T22:56:22.611Z,1.30
2019-04-27T22:59:11.000Z,1.40
2019-04-27T23:02:16.404Z,1.32
2019-04-27T23:05:02.394Z,1.40
2019-04-27T23:07:47.463Z,1.30
2019-04-27T23:10:32.309Z,1.20
2019-04-27T23:13:17.080Z,1.32
2019-04-27T23:16:04.183Z,1.57
2019-04-27T23:18:48.790Z,2.60
2019-04-27T23:21:33.687Z,1.20
2019-04-27T23:24:18.540Z,1.90
2019-04-27T23:27:03.714Z,1.75
2019-04-27T23:29:48.946Z,1.40
2019-04-27T23:32:51.527Z,1.50
2019-04-27T23:35:36.661Z,1.22
2019-04-27T23:38:21.380Z,1.42
2019-04-27T23:41:06.301Z,1.07
2019-04-27T23:43:51.016Z,1.50
2019-04-27T23:46:35.761Z,1.05
2019-04-27T23:49:20.541Z,1.17
2019-04-27T23:52:07.326Z,1.42
2019-04-27T23:54:52.403Z,1.40
2019-04-27T23:57:37.152Z,1.27
